ěÝzenÝ letovÚho provozu ╚eskÚ republiky
Letiste: LKTB Aktualizace: 27.10.2020 01:30:27  UTC
 METAR LKTB 27.10. 01:30 ...
METAR LKTB 270130Z VRB02KT 9000 BKN032 10/10 Q1008 NOSIG RMK REG QNH 1006=
 TAF LKTB 26.10. 23:00 ...
TAF LKTB 262300Z 2700/2806 VRB02KT 9999 BKN025      BECMG 2702/2704 4000 BR BKN012      TEMPO 2704/2806 2000 BR BKN006      PROB30 TEMPO 2707/2719 30006KT 1200 -RA BR BKN003      PROB30 TEMPO 2802/2806 0800 FG BKN003=